createdAt,value
2023-03-06T00:00:14.853Z,55.30
2023-03-06T00:06:23.487Z,54.60
2023-03-06T00:24:55.770Z,53.90
2023-03-06T00:27:59.056Z,53.70
2023-03-06T00:31:04.583Z,53.60
2023-03-06T00:37:11.460Z,53.60
2023-03-06T00:40:26.474Z,54.40
2023-03-06T00:43:42.040Z,53.90
2023-03-06T00:46:47.572Z,54.20
2023-03-06T00:49:52.002Z,54.00
2023-03-06T01:49:18.500Z,52.70
2023-03-06T01:52:26.417Z,53.40
2023-03-06T01:58:46.226Z,53.00
2023-03-06T02:01:51.461Z,53.40
2023-03-06T02:04:56.826Z,53.40
2023-03-06T02:11:15.127Z,54.40
2023-03-06T02:14:19.725Z,53.10
2023-03-06T02:17:25.427Z,55.30
2023-03-06T02:20:38.072Z,54.10
2023-03-06T02:23:57.632Z,54.30
2023-03-06T02:27:05.843Z,54.30
2023-03-06T02:30:13.512Z,54.50
2023-03-06T02:33:19.542Z,54.40
2023-03-06T02:39:31.928Z,55.50
2023-03-06T02:42:38.660Z,54.70
2023-03-06T02:45:53.289Z,54.60
2023-03-06T03:07:25.022Z,54.40
2023-03-06T03:35:10.694Z,54.90
2023-03-06T03:56:41.828Z,54.90
2023-03-06T03:59:46.812Z,54.10
2023-03-06T04:05:55.482Z,54.40
2023-03-06T04:12:06.531Z,54.20
2023-03-06T04:15:12.394Z,54.30
2023-03-06T04:24:27.002Z,54.70
2023-03-06T04:30:35.962Z,54.00
2023-03-06T04:33:40.062Z,56.20
2023-03-06T04:36:45.217Z,54.70
2023-03-06T04:39:49.449Z,54.90
2023-03-06T04:42:52.841Z,52.80
2023-03-06T04:45:59.637Z,55.40
2023-03-06T04:52:07.918Z,57.00
2023-03-06T04:55:14.814Z,57.20
2023-03-06T05:01:24.842Z,57.10
2023-03-06T05:04:28.788Z,54.10
2023-03-06T05:07:39.969Z,55.80
2023-03-06T05:13:49.445Z,54.60
2023-03-06T05:16:53.950Z,56.00
2023-03-06T05:19:57.909Z,55.30
2023-03-06T05:23:02.615Z,55.30
2023-03-06T05:26:10.839Z,54.30
2023-03-06T05:29:14.726Z,55.20
2023-03-06T05:32:19.712Z,55.40
2023-03-06T05:35:25.775Z,55.40
2023-03-06T05:38:30.163Z,55.80
2023-03-06T05:44:42.075Z,55.30
2023-03-06T05:47:49.957Z,56.40
2023-03-06T05:50:59.174Z,57.70
2023-03-06T05:54:03.225Z,55.40
2023-03-06T05:57:06.750Z,56.00
2023-03-06T06:00:14.700Z,55.80
2023-03-06T06:03:19.328Z,56.00
2023-03-06T06:06:22.196Z,56.90
2023-03-06T06:09:26.057Z,57.20
2023-03-06T06:12:28.854Z,56.80
2023-03-06T06:15:32.069Z,56.50
2023-03-06T06:19:03.714Z,56.50
2023-03-06T06:22:08.336Z,56.40
2023-03-06T06:25:12.045Z,55.20
2023-03-06T06:28:15.913Z,56.00
2023-03-06T06:31:19.158Z,55.80
2023-03-06T06:34:24.990Z,58.20
2023-03-06T06:37:28.788Z,56.10
2023-03-06T06:40:32.307Z,57.10
2023-03-06T06:43:37.228Z,56.40
2023-03-06T06:50:08.115Z,56.70
2023-03-06T06:53:11.586Z,57.10
2023-03-06T06:56:15.412Z,56.40
2023-03-06T06:59:18.693Z,56.40
2023-03-06T07:02:22.190Z,56.70
2023-03-06T07:05:26.931Z,55.80
2023-03-06T07:08:30.872Z,55.90
2023-03-06T07:11:34.557Z,56.70
2023-03-06T07:14:41.441Z,58.10
2023-03-06T07:17:45.350Z,57.60
2023-03-06T07:20:54.724Z,57.80
2023-03-06T07:24:00.463Z,57.60
2023-03-06T07:27:03.855Z,57.30
2023-03-06T07:30:09.577Z,57.80
2023-03-06T07:33:14.372Z,56.60
2023-03-06T07:36:20.500Z,55.90
2023-03-06T07:39:24.416Z,55.30
2023-03-06T07:42:29.472Z,56.40
2023-03-06T07:45:33.345Z,53.90
2023-03-06T07:48:37.999Z,54.70
2023-03-06T07:51:42.635Z,54.70
2023-03-06T07:54:46.099Z,54.70
2023-03-06T07:57:52.506Z,54.80
2023-03-06T08:00:56.071Z,54.80
2023-03-06T08:04:02.288Z,54.90
2023-03-06T08:07:07.482Z,55.10
2023-03-06T08:10:15.140Z,55.20
2023-03-06T08:13:18.482Z,55.10
2023-03-06T08:16:33.970Z,55.20
2023-03-06T08:19:39.809Z,55.10
2023-03-06T08:22:45.044Z,55.00
2023-03-06T08:25:57.071Z,54.90
2023-03-06T08:29:03.621Z,54.80
2023-03-06T08:32:07.906Z,54.60
2023-03-06T08:35:12.184Z,53.80
2023-03-06T08:38:22.016Z,54.40
2023-03-06T08:41:28.703Z,54.80
2023-03-06T08:44:33.057Z,54.00
2023-03-06T08:47:41.922Z,53.80
2023-03-06T08:50:45.576Z,54.10
2023-03-06T08:53:53.275Z,53.30
2023-03-06T08:56:56.852Z,52.90
2023-03-06T09:00:00.452Z,52.70
2023-03-06T09:03:06.610Z,51.60
2023-03-06T09:06:10.209Z,52.20
2023-03-06T09:09:15.799Z,52.60
2023-03-06T09:12:19.375Z,52.10
2023-03-06T09:15:29.336Z,52.50
2023-03-06T09:18:32.817Z,52.20
2023-03-06T09:21:36.038Z,51.90
2023-03-06T09:24:40.888Z,51.70
2023-03-06T09:27:44.352Z,51.50
2023-03-06T09:30:48.596Z,51.30
2023-03-06T09:33:52.066Z,50.60
2023-03-06T09:36:57.697Z,50.30
2023-03-06T09:40:04.229Z,50.00
2023-03-06T09:43:21.850Z,49.70
2023-03-06T09:46:39.577Z,50.10
2023-03-06T09:50:01.717Z,49.40
2023-03-06T09:53:26.612Z,48.90
2023-03-06T09:56:40.850Z,48.90
2023-03-06T09:59:55.682Z,48.40
2023-03-06T10:03:15.840Z,48.30
2023-03-06T10:06:28.066Z,48.70
2023-03-06T10:09:45.962Z,48.30
2023-03-06T10:13:07.599Z,48.10
2023-03-06T10:16:30.374Z,48.40
2023-03-06T10:19:37.834Z,48.20
2023-03-06T10:23:00.555Z,48.80
2023-03-06T10:26:18.406Z,48.30
2023-03-06T10:29:56.358Z,47.80
2023-03-06T10:33:19.078Z,47.30
2023-03-06T10:36:27.939Z,47.40
2023-03-06T10:39:31.728Z,47.80
2023-03-06T10:42:35.580Z,47.70
2023-03-06T10:45:51.349Z,47.80
2023-03-06T10:49:00.793Z,46.80
2023-03-06T10:52:08.398Z,47.20
2023-03-06T10:55:28.425Z,45.70
2023-03-06T10:58:34.137Z,45.90
2023-03-06T11:01:41.155Z,46.60
2023-03-06T11:04:54.376Z,45.70
2023-03-06T11:08:00.609Z,45.50
2023-03-06T11:11:12.681Z,44.70
2023-03-06T11:14:19.479Z,44.80
2023-03-06T11:17:32.143Z,45.40
2023-03-06T11:20:51.608Z,44.40
2023-03-06T11:24:01.947Z,44.70
2023-03-06T11:27:23.224Z,42.80
2023-03-06T11:30:35.940Z,43.00
2023-03-06T11:33:50.911Z,42.40
2023-03-06T11:37:02.200Z,41.50
2023-03-06T11:40:18.845Z,42.30
2023-03-06T11:43:35.212Z,42.30
2023-03-06T11:46:43.361Z,42.70
2023-03-06T11:50:02.306Z,43.20
2023-03-06T11:53:11.870Z,42.60
2023-03-06T11:56:35.923Z,42.60
2023-03-06T12:00:12.588Z,41.70
2023-03-06T12:04:02.597Z,43.00
2023-03-06T12:07:28.838Z,43.10
2023-03-06T12:10:42.587Z,43.50
2023-03-06T12:14:04.268Z,43.80
2023-03-06T12:17:36.613Z,43.90
2023-03-06T12:21:05.173Z,44.40
2023-03-06T12:24:32.531Z,43.30
2023-03-06T12:27:50.978Z,43.80
2023-03-06T12:31:45.195Z,43.10
2023-03-06T12:35:23.635Z,42.80
2023-03-06T12:38:54.702Z,42.50
2023-03-06T12:42:23.115Z,42.70
2023-03-06T12:45:33.052Z,43.10
2023-03-06T12:48:41.080Z,43.60
2023-03-06T12:51:47.262Z,42.70
2023-03-06T12:54:51.807Z,42.10
2023-03-06T12:57:57.312Z,43.50
2023-03-06T13:01:09.180Z,43.20
2023-03-06T13:04:49.085Z,42.40
2023-03-06T13:08:18.998Z,41.80
2023-03-06T13:11:55.588Z,42.10
2023-03-06T13:15:33.471Z,41.70
2023-03-06T13:19:11.475Z,41.60
2023-03-06T13:22:29.033Z,42.00
2023-03-06T13:25:48.842Z,42.00
2023-03-06T13:28:54.988Z,42.60
2023-03-06T13:32:20.522Z,42.10
2023-03-06T13:35:56.270Z,41.40
2023-03-06T13:39:09.588Z,41.80
2023-03-06T13:42:28.848Z,41.50
2023-03-06T13:45:39.023Z,41.40
2023-03-06T13:48:46.304Z,41.60
2023-03-06T13:52:09.861Z,41.90
2023-03-06T13:55:27.711Z,41.00
2023-03-06T13:59:06.115Z,40.90
2023-03-06T14:02:50.413Z,42.00
2023-03-06T14:05:56.226Z,41.50
2023-03-06T14:09:01.571Z,42.00
2023-03-06T14:12:19.118Z,41.40
2023-03-06T14:15:26.920Z,41.00
2023-03-06T14:18:39.204Z,40.90
2023-03-06T14:21:56.939Z,40.70
2023-03-06T14:25:14.992Z,40.00
2023-03-06T14:28:27.921Z,40.20
2023-03-06T14:31:37.492Z,40.10
2023-03-06T14:34:47.209Z,39.20
2023-03-06T14:37:57.375Z,40.10
2023-03-06T14:47:26.643Z,40.00
2023-03-06T14:50:35.222Z,38.50
2023-03-06T14:53:40.464Z,39.70
2023-03-06T14:56:47.040Z,40.00
2023-03-06T14:59:58.395Z,40.40
2023-03-06T15:03:06.143Z,40.10
2023-03-06T15:06:15.983Z,39.30
2023-03-06T15:09:31.997Z,40.70
2023-03-06T15:12:38.947Z,39.90
2023-03-06T15:18:59.071Z,39.40
2023-03-06T15:22:03.084Z,38.70
2023-03-06T15:25:30.146Z,39.60
2023-03-06T15:28:38.758Z,38.10
2023-03-06T15:31:45.694Z,38.70
2023-03-06T15:35:09.789Z,38.70
2023-03-06T15:38:28.583Z,39.30
2023-03-06T15:41:37.718Z,39.00
2023-03-06T15:44:41.634Z,39.50
2023-03-06T15:47:47.380Z,39.50
2023-03-06T15:50:51.697Z,39.70
2023-03-06T15:54:09.761Z,39.80
2023-03-06T15:57:24.925Z,40.70
2023-03-06T16:00:34.250Z,39.20
2023-03-06T16:03:39.093Z,39.40
2023-03-06T16:06:44.636Z,39.60
2023-03-06T16:09:47.959Z,39.30
2023-03-06T16:12:58.532Z,40.40
2023-03-06T16:16:04.165Z,40.60
2023-03-06T16:19:25.885Z,40.70
2023-03-06T16:22:33.696Z,40.50
2023-03-06T16:25:41.035Z,40.60
2023-03-06T16:28:47.422Z,40.30
2023-03-06T16:31:51.899Z,40.60
2023-03-06T16:34:55.399Z,40.70
2023-03-06T16:38:02.154Z,41.00
2023-03-06T16:41:07.098Z,41.00
2023-03-06T16:44:12.454Z,41.40
2023-03-06T16:47:16.230Z,43.00
2023-03-06T16:50:29.280Z,42.20
2023-03-06T16:53:33.188Z,42.00
2023-03-06T16:56:48.058Z,42.50
2023-03-06T16:59:55.363Z,41.80
2023-03-06T17:03:05.684Z,41.80
2023-03-06T17:06:21.087Z,41.80
2023-03-06T17:09:25.626Z,42.60
2023-03-06T17:12:29.422Z,42.90
2023-03-06T17:19:00.901Z,42.60
2023-03-06T17:25:13.315Z,42.80
2023-03-06T17:28:18.465Z,42.70
2023-03-06T17:31:28.223Z,43.60
2023-03-06T17:34:33.425Z,43.70
2023-03-06T17:37:38.667Z,44.00
2023-03-06T17:41:00.553Z,45.00
2023-03-06T17:44:16.440Z,43.80
2023-03-06T17:47:22.169Z,44.60
2023-03-06T17:53:40.960Z,44.20
2023-03-06T17:56:44.960Z,43.40
2023-03-06T18:03:06.082Z,43.50
2023-03-06T21:11:51.150Z,50.20
2023-03-06T21:18:04.603Z,50.20
2023-03-06T21:21:11.117Z,50.80
2023-03-06T21:24:15.192Z,51.40
2023-03-06T21:27:21.542Z,51.70
2023-03-06T21:33:34.715Z,54.00
2023-03-06T21:42:49.856Z,51.80
2023-03-06T21:45:58.909Z,52.10
2023-03-06T21:49:41.436Z,52.50
2023-03-06T21:56:01.512Z,52.10
2023-03-06T22:02:42.827Z,52.80
2023-03-06T22:05:46.481Z,52.00
2023-03-06T22:08:50.737Z,53.00
2023-03-06T22:11:54.751Z,54.50
2023-03-06T22:15:02.220Z,53.60
2023-03-06T22:18:07.409Z,54.20
2023-03-06T22:21:16.496Z,54.30
2023-03-06T22:27:32.126Z,54.40
2023-03-06T22:30:40.794Z,55.00
2023-03-06T22:33:46.582Z,56.00
2023-03-06T22:36:50.721Z,55.70
2023-03-06T22:39:54.789Z,56.00
2023-03-06T22:42:59.046Z,56.20
2023-03-06T22:46:09.719Z,56.30
2023-03-06T22:49:19.270Z,56.80
2023-03-06T22:52:22.655Z,57.00
2023-03-06T22:58:37.210Z,57.70
2023-03-06T23:01:43.310Z,56.60
2023-03-06T23:04:52.416Z,57.70
2023-03-06T23:07:56.244Z,58.00
2023-03-06T23:11:00.440Z,58.00
2023-03-06T23:14:07.062Z,58.00
2023-03-06T23:17:12.712Z,58.20
2023-03-06T23:20:16.495Z,59.30
2023-03-06T23:23:19.975Z,58.50
2023-03-06T23:26:29.024Z,59.00
2023-03-06T23:29:33.041Z,59.30
2023-03-06T23:32:38.119Z,59.80
2023-03-06T23:35:43.637Z,59.40
2023-03-06T23:38:48.954Z,59.50
2023-03-06T23:41:52.796Z,59.80
2023-03-06T23:44:56.482Z,61.10
2023-03-06T23:48:01.944Z,60.10
2023-03-06T23:51:09.440Z,60.80
2023-03-06T23:54:13.032Z,60.70
